createdAt,value
2023-01-25T00:01:59.818Z,29.60
2023-01-25T00:06:50.376Z,30.10
2023-01-25T00:11:41.603Z,28.60
2023-01-25T00:16:32.436Z,30.23
2023-01-25T00:21:31.867Z,29.55
2023-01-25T00:26:25.377Z,30.05
2023-01-25T00:31:29.929Z,30.00
2023-01-25T00:36:48.338Z,29.87
2023-01-25T00:41:38.949Z,29.23
2023-01-25T00:46:32.650Z,30.80
2023-01-25T00:51:24.059Z,29.73
2023-01-25T00:56:18.187Z,30.50
2023-01-25T01:01:12.117Z,30.58
2023-01-25T01:06:08.672Z,30.90
2023-01-25T01:11:06.430Z,29.67
2023-01-25T01:16:04.021Z,31.15
2023-01-25T01:20:56.299Z,29.97
2023-01-25T01:25:50.720Z,30.05
2023-01-25T01:30:42.675Z,31.35
2023-01-25T01:35:37.323Z,29.80
2023-01-25T01:40:29.174Z,31.53
2023-01-25T01:45:54.930Z,31.10
2023-01-25T01:50:59.551Z,29.80
2023-01-25T01:55:51.392Z,30.87
2023-01-25T02:00:45.125Z,31.70
2023-01-25T02:05:47.039Z,30.65
2023-01-25T02:10:42.048Z,31.83
2023-01-25T02:15:41.420Z,31.10
2023-01-25T02:20:41.468Z,29.55
2023-01-25T02:25:35.869Z,30.48
2023-01-25T02:30:30.112Z,31.27
2023-01-25T02:35:28.605Z,31.27
2023-01-25T02:40:20.410Z,30.00
2023-01-25T02:45:20.790Z,30.52
2023-01-25T02:50:16.147Z,30.50
2023-01-25T02:55:07.682Z,30.73
2023-01-25T02:59:59.008Z,30.60
2023-01-25T03:04:53.563Z,31.23
2023-01-25T03:09:49.174Z,29.77
2023-01-25T03:14:40.827Z,30.60
2023-01-25T03:19:33.515Z,31.13
2023-01-25T03:24:29.510Z,32.03
2023-01-25T03:29:20.963Z,32.20
2023-01-25T03:34:18.298Z,32.45
2023-01-25T03:39:08.669Z,31.38
2023-01-25T03:44:07.591Z,31.00
2023-01-25T03:48:59.119Z,31.83
2023-01-25T03:53:50.175Z,31.48
2023-01-25T03:58:43.744Z,31.43
2023-01-25T04:03:38.323Z,32.15
2023-01-25T04:08:31.427Z,31.17
2023-01-25T04:13:24.480Z,32.40
2023-01-25T04:18:18.747Z,32.17
2023-01-25T04:23:13.869Z,30.23
2023-01-25T04:28:06.117Z,33.40
2023-01-25T04:32:56.778Z,31.27
2023-01-25T04:37:58.456Z,30.00
2023-01-25T04:42:57.607Z,31.10
2023-01-25T04:47:48.986Z,33.20
2023-01-25T04:52:44.142Z,30.93
2023-01-25T04:57:35.544Z,32.15
2023-01-25T05:02:29.962Z,32.85
2023-01-25T05:07:20.333Z,32.88
2023-01-25T05:12:13.774Z,33.33
2023-01-25T05:17:19.478Z,33.70
2023-01-25T05:22:21.416Z,34.97
2023-01-25T05:27:17.699Z,34.28
2023-01-25T05:32:19.243Z,36.10
2023-01-25T05:37:16.466Z,37.25
2023-01-25T05:42:15.696Z,36.65
2023-01-25T05:47:06.923Z,37.22
2023-01-25T05:51:58.939Z,38.07
2023-01-25T05:57:04.128Z,38.87
2023-01-25T06:01:59.568Z,38.17
2023-01-25T06:06:51.351Z,37.83
2023-01-25T06:11:41.612Z,41.07
2023-01-25T06:16:35.911Z,37.03
2023-01-25T06:21:49.090Z,36.97
2023-01-25T06:26:40.176Z,38.57
2023-01-25T06:31:31.541Z,37.97
2023-01-25T06:36:29.068Z,38.38
2023-01-25T06:41:23.299Z,37.58
2023-01-25T06:46:15.917Z,36.70
2023-01-25T06:51:10.448Z,37.83
2023-01-25T06:56:06.359Z,35.15
2023-01-25T07:00:58.099Z,37.45
2023-01-25T07:05:49.863Z,35.72
2023-01-25T07:10:42.663Z,36.97
2023-01-25T07:15:38.237Z,37.73
2023-01-25T07:20:29.473Z,35.47
2023-01-25T07:25:20.879Z,34.87
2023-01-25T07:30:13.465Z,36.05
2023-01-25T07:35:08.240Z,37.63
2023-01-25T07:39:59.844Z,36.37
2023-01-25T07:44:51.667Z,36.40
2023-01-25T07:49:41.809Z,38.17
2023-01-25T07:54:36.161Z,36.23
2023-01-25T07:59:29.162Z,36.97
2023-01-25T08:04:21.306Z,37.03
2023-01-25T08:09:16.205Z,37.97
2023-01-25T08:14:11.832Z,38.42
2023-01-25T08:19:04.931Z,38.50
2023-01-25T08:23:56.324Z,40.30
2023-01-25T08:28:53.505Z,40.03
2023-01-25T08:33:47.663Z,40.20
2023-01-25T08:38:39.572Z,38.70
2023-01-25T08:43:30.951Z,38.17
2023-01-25T08:48:22.740Z,38.33
2023-01-25T08:53:18.885Z,38.40
2023-01-25T08:58:14.166Z,36.93
2023-01-25T09:03:08.777Z,37.40
2023-01-25T09:08:03.366Z,38.03
2023-01-25T09:12:59.425Z,38.38
2023-01-25T09:17:50.445Z,37.25
2023-01-25T09:22:44.753Z,39.87
2023-01-25T09:27:36.254Z,37.97
2023-01-25T09:32:33.483Z,39.88
2023-01-25T09:37:26.761Z,38.03
2023-01-25T09:42:47.998Z,39.30
2023-01-25T09:47:49.976Z,39.87
2023-01-25T09:53:09.955Z,39.42
2023-01-25T09:58:06.033Z,38.53
2023-01-25T10:03:07.606Z,38.05
2023-01-25T10:08:07.473Z,38.25
2023-01-25T10:13:03.364Z,38.97
2023-01-25T10:18:09.885Z,40.05
2023-01-25T10:23:34.245Z,39.75
2023-01-25T10:28:44.281Z,40.17
2023-01-25T10:33:47.723Z,39.00
2023-01-25T10:38:53.715Z,37.70
2023-01-25T10:44:08.525Z,37.45
2023-01-25T10:49:22.409Z,36.95
2023-01-25T10:54:29.346Z,37.05
2023-01-25T10:59:32.690Z,35.45
2023-01-25T11:04:48.977Z,36.05
2023-01-25T11:09:57.033Z,36.50
2023-01-25T11:14:57.836Z,35.57
2023-01-25T11:19:53.027Z,36.63
2023-01-25T11:24:52.548Z,37.00
2023-01-25T11:29:52.127Z,36.92
2023-01-25T11:35:07.657Z,35.60
2023-01-25T11:40:18.204Z,37.80
2023-01-25T11:45:49.962Z,37.93
2023-01-25T11:50:47.993Z,35.75
2023-01-25T11:55:51.158Z,36.88
2023-01-25T12:01:07.372Z,36.72
2023-01-25T12:06:13.087Z,34.85
2023-01-25T12:11:12.057Z,33.97
2023-01-25T12:16:29.980Z,34.17
2023-01-25T12:21:43.983Z,33.70
2023-01-25T12:26:50.693Z,33.97
2023-01-25T12:32:02.376Z,34.88
2023-01-25T12:36:59.959Z,35.00
2023-01-25T12:41:55.060Z,32.35
2023-01-25T12:46:55.115Z,34.92
2023-01-25T12:51:47.763Z,34.23
2023-01-25T12:56:47.115Z,33.13
2023-01-25T13:01:49.598Z,35.33
2023-01-25T13:07:00.274Z,33.92
2023-01-25T13:11:59.991Z,34.33
2023-01-25T13:17:08.487Z,34.60
2023-01-25T13:22:03.728Z,34.50
2023-01-25T13:27:30.843Z,34.05
2023-01-25T13:33:00.080Z,35.67
2023-01-25T13:38:05.082Z,35.45
2023-01-25T13:43:09.860Z,35.80
2023-01-25T13:48:10.502Z,35.67
2023-01-25T13:53:02.965Z,33.92
2023-01-25T13:57:57.419Z,32.90
2023-01-25T14:02:58.533Z,33.95
2023-01-25T14:07:51.606Z,35.42
2023-01-25T14:12:44.487Z,37.88
2023-01-25T14:17:39.535Z,37.03
2023-01-25T14:22:36.074Z,38.07
2023-01-25T14:27:28.196Z,39.13
2023-01-25T14:32:24.324Z,40.45
2023-01-25T14:37:21.538Z,39.47
2023-01-25T14:42:16.072Z,38.65
2023-01-25T14:47:27.807Z,42.37
2023-01-25T14:52:23.545Z,45.00
2023-01-25T14:57:34.400Z,44.90
2023-01-25T15:02:37.522Z,46.83
2023-01-25T15:07:47.594Z,47.78
2023-01-25T15:12:41.212Z,50.83
2023-01-25T15:17:48.513Z,52.90
2023-01-25T15:22:47.694Z,52.67
2023-01-25T15:27:43.813Z,54.85
2023-01-25T15:32:39.695Z,54.15
2023-01-25T15:37:33.584Z,57.67
2023-01-25T15:42:36.859Z,54.97
2023-01-25T15:47:34.660Z,54.72
2023-01-25T15:52:26.408Z,53.00
2023-01-25T15:57:28.994Z,50.60
2023-01-25T16:02:20.752Z,48.85
2023-01-25T16:07:33.454Z,50.42
2023-01-25T16:12:27.250Z,53.78
2023-01-25T16:17:25.786Z,54.28
2023-01-25T16:22:20.203Z,56.53
2023-01-25T16:27:27.027Z,59.85
2023-01-25T16:32:19.231Z,58.85
2023-01-25T16:37:10.380Z,62.30
2023-01-25T16:42:05.987Z,60.67
2023-01-25T16:46:58.936Z,61.60
2023-01-25T16:51:54.368Z,66.07
2023-01-25T16:56:46.805Z,65.07
2023-01-25T17:01:42.331Z,63.70
2023-01-25T17:06:35.642Z,64.50
2023-01-25T17:11:27.157Z,65.80
2023-01-25T17:16:18.689Z,64.57
2023-01-25T17:21:15.617Z,64.50
2023-01-25T17:26:08.303Z,62.97
2023-01-25T17:31:01.906Z,59.65
2023-01-25T17:35:58.852Z,61.27
2023-01-25T17:40:57.033Z,60.90
2023-01-25T17:45:50.598Z,59.15
2023-01-25T17:50:42.796Z,61.00
2023-01-25T17:55:40.337Z,62.38
2023-01-25T18:00:36.199Z,63.95
2023-01-25T18:05:30.180Z,65.53
2023-01-25T18:10:29.413Z,65.53
2023-01-25T18:15:24.169Z,66.17
2023-01-25T18:20:24.759Z,64.22
2023-01-25T18:25:34.464Z,69.15
2023-01-25T18:30:37.271Z,70.35
2023-01-25T18:35:32.841Z,67.90
2023-01-25T18:40:25.129Z,67.55
2023-01-25T18:45:17.200Z,70.97
2023-01-25T18:50:14.532Z,70.47
2023-01-25T18:55:09.699Z,70.68
2023-01-25T19:00:00.264Z,70.68
2023-01-25T19:04:50.439Z,72.90
2023-01-25T19:09:44.056Z,71.03
2023-01-25T19:14:41.498Z,71.07
2023-01-25T19:19:36.297Z,71.15
2023-01-25T19:24:28.470Z,72.53
2023-01-25T19:29:22.994Z,71.28
2023-01-25T19:34:17.591Z,73.93
2023-01-25T19:39:13.531Z,73.45
2023-01-25T19:44:07.891Z,70.63
2023-01-25T19:49:03.410Z,71.63
2023-01-25T19:54:01.239Z,73.50
2023-01-25T19:58:53.486Z,72.45
2023-01-25T20:03:47.956Z,72.72
2023-01-25T20:08:42.881Z,72.25
2023-01-25T20:13:39.870Z,72.87
2023-01-25T20:18:33.678Z,77.28
2023-01-25T20:23:25.524Z,78.67
2023-01-25T20:28:17.728Z,81.13
2023-01-25T20:33:10.898Z,84.88
2023-01-25T20:38:03.045Z,86.72
2023-01-25T20:42:58.681Z,89.90
2023-01-25T20:47:50.929Z,88.97
2023-01-25T20:52:57.643Z,92.68
2023-01-25T20:57:54.279Z,87.78
2023-01-25T21:02:50.128Z,90.93
2023-01-25T21:07:43.583Z,86.38
2023-01-25T21:12:36.922Z,85.88
2023-01-25T21:17:27.189Z,87.15
2023-01-25T21:22:19.620Z,87.88
2023-01-25T21:27:10.268Z,84.10
2023-01-25T21:32:06.250Z,85.65
2023-01-25T21:36:58.524Z,82.13
2023-01-25T21:41:50.558Z,83.80
2023-01-25T21:47:06.053Z,82.50
2023-01-25T21:52:02.578Z,81.20
2023-01-25T21:56:57.209Z,85.22
2023-01-25T22:01:50.693Z,81.97
2023-01-25T22:06:40.793Z,78.40
2023-01-25T22:11:35.363Z,73.90
2023-01-25T22:16:26.846Z,72.57
2023-01-25T22:21:24.244Z,66.37
2023-01-25T22:26:22.961Z,67.73
2023-01-25T22:31:17.583Z,69.73
2023-01-25T22:36:12.597Z,72.22
2023-01-25T22:41:09.031Z,70.73
2023-01-25T22:46:00.787Z,69.75
2023-01-25T22:50:53.644Z,64.63
2023-01-25T22:55:44.013Z,69.90
2023-01-25T23:00:34.706Z,66.60
2023-01-25T23:05:25.444Z,62.60
2023-01-25T23:10:20.140Z,61.95
2023-01-25T23:15:17.694Z,61.58
2023-01-25T23:20:10.008Z,58.50
2023-01-25T23:25:02.694Z,58.83
2023-01-25T23:29:56.433Z,57.95
2023-01-25T23:34:53.700Z,57.58
2023-01-25T23:39:45.920Z,54.78
2023-01-25T23:44:37.522Z,53.63
2023-01-25T23:49:32.766Z,55.25
2023-01-25T23:54:23.426Z,54.97
2023-01-25T23:59:17.883Z,54.65
